Detall de PIREP

Printer-friendly versionPDF version

[2013/05/18 05:10:00]
Flight IATA:CT2110
Pilot Number:041
Company ICAO:CAT
Aircraft Type:A320/E
PAX:99
Departing Airport: LEVC
Destination Airport: LEST
Alternate Airport:LEMG
Online: VATSIM
Route:CENTA A33 PRADO UN733 FORNO
Flight Level:FL330
No Slew and time accel
No pause
Crash detect
Detect pilot in Cockpit between each 30 and 45 minutes
05:10 Zero fuel Weight: 134050 Lbs, Fuel Weight: 17288 Lbs
05:10 VATSIM:LEVC 180430Z 26010KT CAVOK 11/06 Q1004 NOSIG
05:10 VATSIM:LEST 180430Z 33005KT 290V350 9999 SCT012TCU BKN030 06/06 Q1009 TEMPO 3000 SHRA BKN010TCU
05:10 VOICE CATALONIAN
05:13 Parking Brakes off
05:20 Take-off
05:20 Take off Weight: 150526 Lbs
05:20 Wind: 263º @ 009 Knots Heading: 296º
05:20 POS N39º 29´ 33´´ W000º 29´ 27´´
05:20 Gear Up: 179 Knots
05:20 Flaps:3 at 179 Knots
05:20 Flaps:2 at 178 Knots
05:20 Flaps:1 at 185 Knots
05:21 Flaps:0 at 200 Knots
05:35 Wind:228º@033 Knots Heading: 295º Ground Speed: 443 Knots Altitude 29648 ft
05:36 TOC
05:36 Fuel Weight: 12428 Lb
05:50 Wind:283º@035 Knots Heading: 295º Ground Speed: 427 Knots Altitude 32723 ft
06:05 Wind:327º@044 Knots Heading: 306º Ground Speed: 418 Knots Altitude 32696 ft
06:09 TOD
06:09 Fuel Weight: 9297 Lb
06:20 Wind:331º@025 Knots Heading: 305º Ground Speed: 281 Knots Altitude 14576 ft
06:32 Flaps:1 at 211 Knots
06:32 Flaps:3 at 208 Knots
06:33 Flaps:4 at 173 Knots
06:33 Gear Down: 153 Knots
06:33 Flaps:5 at 147 Knots
06:35 Wind:071º@002 Knots Heading: 165º Ground Speed: 147 Knots Altitude 2290 ft
06:36 TouchDown:Rate -185 ft/min Speed: 136 Knots
06:36 VATSIM:LEST 180600Z VRB02KT 9999 SCT010 BKN024 06/06 Q1010 TEMPO 3000 SHRA BKN010TCU
06:36 Land
06:36 Wind:090º@001 Knots
06:36 Heading: 178º
06:36 Flight Duration: 01:16
06:36 Landing Weight: 141301 Lbs
06:36 POS N42º 54´ 02´´ W008º 24´ 59´´
06:37 Parking brakes on
06:37 Block to Block Duration: 01:24
06:37 Final Fuel: 7156 Lbls
06:37 Spent Fuel: 10132 Lbls
06:37 Flight Length: 451 NM
06:37 TOD Land Length: 120 NM

Exportar CSV

Powered by Drupal - Modified by Danger4k